Track Евтюхова Екатерина

Time Latitude Longitude Accuracy (66% radius in meters) Altitude (meters) Speed (km/hour) Bearing (degrees) Battery (%) GPS flag
06:23:23 57.203626 60.118715 0 0 0 0 1 delete
06:23:22 57.203628 60.118713 0 0 0 0 1 delete
06:23:21 57.203630 60.118711 0 0 0 0 1 delete
06:23:20 57.203631 60.118710 0 0 0 0 1 delete
06:23:19 57.203633 60.118709 0 0 0 0 1 delete
06:23:18 57.203637 60.118705 0 0 0 0 1 delete
06:23:17 57.203640 60.118702 0 0 0 0 1 delete
06:23:16 57.203643 60.118698 0 0 0 0 1 delete
06:23:15 57.203645 60.118696 0 0 0 0 1 delete
06:23:14 57.203649 60.118694 0 0 0 0 1 delete
06:23:13 57.203652 60.118692 0 0 0 0 1 delete
06:23:12 57.203657 60.118683 0 0 0 0 1 delete
06:23:11 57.203667 60.118659 0 0 0 0 1 delete
06:23:10 57.203682 60.118621 0 0 0 0 1 delete
06:23:09 57.203701 60.118576 0 0 0 0 1 delete
06:23:08 57.203719 60.118529 0 0 0 0 1 delete
06:23:07 57.203733 60.118482 0 0 0 0 1 delete
06:23:06 57.203745 60.118434 0 0 0 0 1 delete
06:23:05 57.203757 60.118384 0 0 0 0 1 delete
06:23:04 57.203769 60.118333 0 0 0 0 1 delete
06:23:03 57.203782 60.118283 0 0 0 0 1 delete
06:23:02 57.203795 60.118235 0 0 0 0 1 delete
06:23:01 57.203808 60.118187 0 0 0 0 1 delete
06:23:00 57.203820 60.118136 0 0 0 0 1 delete
06:22:59 57.203831 60.118080 0 0 0 0 1 delete
06:22:58 57.203839 60.118022 0 0 0 0 1 delete
06:22:57 57.203841 60.117960 0 0 0 0 1 delete
06:22:56 57.203836 60.117895 0 0 0 0 1 delete
06:22:55 57.203829 60.117828 0 0 0 0 1 delete
06:22:54 57.203818 60.117768 0 0 0 0 1 delete
06:22:53 57.203807 60.117713 0 0 0 0 1 delete
06:22:52 57.203792 60.117660 0 0 0 0 1 delete
06:22:51 57.203778 60.117603 0 0 0 0 1 delete
06:22:50 57.203765 60.117545 0 0 0 0 1 delete
06:22:49 57.203753 60.117487 0 0 0 0 1 delete
06:22:48 57.203744 60.117434 0 0 0 0 1 delete
06:22:47 57.203735 60.117384 0 0 0 0 1 delete
06:22:46 57.203725 60.117337 0 0 0 0 1 delete
06:22:45 57.203715 60.117288 0 0 0 0 1 delete
06:22:44 57.203706 60.117238 0 0 0 0 1 delete
06:22:43 57.203693 60.117185 0 0 0 0 1 delete
06:22:42 57.203686 60.117135 0 0 0 0 1 delete
06:22:41 57.203680 60.117087 0 0 0 0 1 delete
06:22:40 57.203677 60.117038 0 0 0 0 1 delete
06:22:39 57.203673 60.116988 0 0 0 0 1 delete
06:22:38 57.203667 60.116938 0 0 0 0 1 delete
06:22:37 57.203665 60.116886 0 0 0 0 1 delete
06:22:36 57.203662 60.116833 0 0 0 0 1 delete
06:22:35 57.203658 60.116781 0 0 0 0 1 delete
06:22:34 57.203654 60.116734 0 0 0 0 1 delete